Time;durP1;ratioP1;P1;durP2;ratioP2;P2;SDS_P1;SDS_P2;PMS_P1;PMS_P2;Temp;Humidity;BMP_temperature;BMP_pressure;BME280_temperature;BME280_humidity;BME280_pressure;Samples;Min_cycle;Max_cycle;Signal;HPM_P1;HPM_P2
2022/10/26 00:02:03;;;;;;;24.13;9.70;;;;;8.90;96520.00;;;;8298798;28;20682;-70
2022/10/26 00:06:41;;;;;;;166.50;17.92;;;;;8.80;96512.00;;;;8298668;28;20298;-70
2022/10/26 00:10:43;;;;;;;463.13;32.90;;;;;8.80;96504.00;;;;8297876;28;20221;-70
2022/10/26 01:03:07;;;;;;;43.55;16.33;;;;;11.00;96472.00;;;;8316020;28;20268;-72
2022/10/26 01:07:37;;;;;;;39.03;17.02;;;;;11.30;96472.00;;;;8312388;28;20229;-71
2022/10/26 01:11:40;;;;;;;36.65;16.10;;;;;11.60;96471.00;;;;8283612;28;20218;-72
2022/10/26 01:16:17;;;;;;;37.33;14.93;;;;;11.70;96467.00;;;;8296849;28;20568;-72
2022/10/26 01:20:57;;;;;;;29.17;13.65;;;;;11.90;96483.00;;;;8296966;28;20568;-71
2022/10/26 01:25:37;;;;;;;35.58;15.10;;;;;12.00;96479.00;;;;8298998;28;20544;-72
2022/10/26 01:30:03;;;;;;;29.65;14.82;;;;;12.10;96483.00;;;;8296423;28;20287;-72
2022/10/26 01:34:14;;;;;;;31.80;14.10;;;;;12.20;96474.00;;;;8296259;28;20217;-72
2022/10/26 01:38:52;;;;;;;35.65;14.55;;;;;12.20;96470.00;;;;8296569;28;20276;-73
2022/10/26 01:43:17;;;;;;;34.95;14.98;;;;;12.20;96468.00;;;;8328915;28;20223;-73
2022/10/26 01:47:23;;;;;;;36.78;15.20;;;;;12.30;96464.00;;;;8296165;28;20773;-73
2022/10/26 01:51:30;;;;;;;30.65;14.90;;;;;12.40;96454.00;;;;8293931;28;20576;-73
2022/10/26 01:56:04;;;;;;;33.40;14.82;;;;;12.40;96458.00;;;;8296665;28;20328;-72
2022/10/26 02:00:43;;;;;;;28.83;13.77;;;;;12.40;96463.00;;;;8296312;28;20636;-72
2022/10/26 02:05:01;;;;;;;36.80;14.63;;;;;12.40;96457.00;;;;8295918;28;20218;-72
2022/10/26 02:09:33;;;;;;;35.03;15.23;;;;;12.40;96442.00;;;;8295572;28;20221;-73
2022/10/26 02:13:44;;;;;;;34.97;14.80;;;;;12.50;96430.00;;;;8296075;28;20218;-73
2022/10/26 02:18:16;;;;;;;36.45;15.43;;;;;12.40;96444.00;;;;8295177;28;20226;-72
2022/10/26 02:22:24;;;;;;;31.80;14.55;;;;;12.50;96495.00;;;;8295412;28;20275;-72
2022/10/26 02:26:31;;;;;;;31.63;13.52;;;;;12.50;96489.00;;;;8294507;28;20235;-72
2022/10/26 02:30:36;;;;;;;34.72;12.95;;;;;12.40;96496.00;;;;8294997;28;20233;-72
2022/10/26 02:35:10;;;;;;;33.63;13.10;;;;;12.20;96487.00;;;;8295918;28;20276;-72
2022/10/26 02:39:16;;;;;;;38.10;13.32;;;;;12.20;96479.00;;;;8300175;28;20214;-72
2022/10/26 02:43:22;;;;;;;43.05;15.20;;;;;12.10;96468.00;;;;8302235;28;20229;-72
2022/10/26 02:47:56;;;;;;;47.30;17.38;;;;;12.10;96466.00;;;;8299613;28;20234;-72
2022/10/26 02:57:01;;;;;;;44.50;18.48;;;;;12.10;96459.00;;;;8300956;28;20214;-72
2022/10/26 03:01:39;;;;;;;46.17;16.98;;;;;12.20;96439.00;;;;8297840;28;20228;-72
2022/10/26 03:06:10;;;;;;;43.35;16.58;;;;;12.20;96458.00;;;;8301128;28;20272;-71
2022/10/26 03:10:47;;;;;;;42.33;17.30;;;;;12.20;96458.00;;;;8300980;28;20660;-72
2022/10/26 03:14:50;;;;;;;43.83;16.63;;;;;12.30;96452.00;;;;8299443;28;20221;-70
2022/10/26 03:19:27;;;;;;;44.45;16.38;;;;;12.30;96457.00;;;;8300061;28;20225;-70
2022/10/26 03:24:05;;;;;;;42.92;16.67;;;;;12.30;96448.00;;;;8300670;28;20225;-68
2022/10/26 03:28:39;;;;;;;35.50;16.35;;;;;12.30;96455.00;;;;8299864;28;20274;-68
2022/10/26 03:33:16;;;;;;;37.45;15.95;;;;;12.30;96465.00;;;;8300201;28;20569;-68
2022/10/26 03:37:53;;;;;;;40.05;15.90;;;;;12.30;96467.00;;;;8300621;28;20256;-68
2022/10/26 03:41:58;;;;;;;40.40;15.75;;;;;12.30;96465.00;;;;8299307;28;20548;-68
2022/10/26 03:46:01;;;;;;;47.95;16.40;;;;;12.30;96477.00;;;;8299475;28;20230;-68
2022/10/26 03:50:38;;;;;;;38.75;15.50;;;;;12.30;96466.00;;;;8298696;28;20694;-70
2022/10/26 03:55:15;;;;;;;36.80;15.50;;;;;12.30;96461.00;;;;8299278;28;20241;-69
2022/10/26 03:59:19;;;;;;;36.72;15.43;;;;;12.20;96459.00;;;;8294906;28;20581;-68
2022/10/26 04:03:23;;;;;;;49.50;16.13;;;;;12.30;96461.00;;;;8299510;28;20229;-68
2022/10/26 04:07:26;;;;;;;38.40;16.90;;;;;12.30;96458.00;;;;8298806;28;20234;-68
2022/10/26 04:12:03;;;;;;;41.92;16.50;;;;;12.30;96458.00;;;;8299407;28;20222;-68
2022/10/26 04:16:08;;;;;;;45.97;16.48;;;;;12.30;96461.00;;;;8295964;28;20500;-68
2022/10/26 04:20:45;;;;;;;38.03;15.85;;;;;12.30;96468.00;;;;8294421;28;20275;-68
2022/10/26 04:25:21;;;;;;;35.88;16.30;;;;;12.30;96472.00;;;;8288946;28;21951;-68
2022/10/26 04:29:24;;;;;;;35.25;14.60;;;;;12.30;96478.00;;;;8298664;28;20321;-67
2022/10/26 04:33:29;;;;;;;36.88;15.15;;;;;12.30;96484.00;;;;8298280;28;20280;-68
2022/10/26 04:37:33;;;;;;;46.92;16.23;;;;;12.30;96477.00;;;;8297527;28;20225;-68
2022/10/26 04:42:09;;;;;;;44.05;15.63;;;;;12.30;96484.00;;;;8298323;28;20231;-68
2022/10/26 04:46:13;;;;;;;40.53;15.50;;;;;12.30;96475.00;;;;8297264;28;20225;-67
2022/10/26 04:50:20;;;;;;;45.53;16.55;;;;;12.30;96475.00;;;;8298045;28;20247;-67
2022/10/26 04:54:28;;;;;;;39.75;15.65;;;;;12.30;96487.00;;;;8297646;28;20256;-67
2022/10/26 04:59:05;;;;;;;35.80;16.00;;;;;12.30;96487.00;;;;8296433;28;20572;-68
2022/10/26 05:03:39;;;;;;;40.05;15.75;;;;;12.20;96488.00;;;;8297745;28;20214;-67
2022/10/26 05:08:17;;;;;;;41.08;17.05;;;;;12.20;96494.00;;;;8297097;28;20240;-67
2022/10/26 05:12:20;;;;;;;52.00;16.80;;;;;12.30;96486.00;;;;8296499;28;20234;-68
2022/10/26 05:16:23;;;;;;;46.95;17.40;;;;;12.30;96486.00;;;;8296433;28;20233;-68
2022/10/26 05:20:29;;;;;;;52.47;18.25;;;;;12.30;96500.00;;;;8296445;28;20676;-68
2022/10/26 05:25:05;;;;;;;52.83;17.95;;;;;12.30;96510.00;;;;8296835;28;20217;-67
2022/10/26 05:29:08;;;;;;;46.35;17.65;;;;;12.30;96519.00;;;;8296088;28;20225;-67
2022/10/26 05:33:48;;;;;;;42.13;17.80;;;;;12.30;96521.00;;;;8297280;28;20217;-68
2022/10/26 05:38:25;;;;;;;47.13;17.40;;;;;12.30;96522.00;;;;8296387;28;20229;-68
2022/10/26 05:43:02;;;;;;;50.45;18.75;;;;;12.30;96519.00;;;;8296704;28;20226;-68
2022/10/26 05:47:07;;;;;;;58.17;19.55;;;;;12.30;96522.00;;;;8296387;28;20714;-69
2022/10/26 05:51:11;;;;;;;64.80;20.83;;;;;12.30;96532.00;;;;8296393;28;20217;-69
2022/10/26 05:55:30;;;;;;;53.78;20.35;;;;;12.30;96546.00;;;;8295986;28;20536;-69
2022/10/26 05:59:35;;;;;;;56.30;21.20;;;;;12.30;96553.00;;;;8295304;28;20222;-70
2022/10/26 06:03:53;;;;;;;59.60;20.98;;;;;12.40;96562.00;;;;8295924;28;20218;-70
2022/10/26 06:08:15;;;;;;;62.75;20.80;;;;;12.40;96568.00;;;;8277938;28;20222;-70
2022/10/26 06:12:49;;;;;;;54.33;20.75;;;;;12.40;96573.00;;;;8295267;28;20213;-70
2022/10/26 06:17:04;;;;;;;61.78;20.20;;;;;12.40;96583.00;;;;8287286;28;20704;-71
2022/10/26 06:21:20;;;;;;;56.88;20.40;;;;;12.30;96578.00;;;;8305841;28;20222;-72
2022/10/26 06:25:48;;;;;;;63.25;22.30;;;;;12.40;96585.00;;;;8294839;28;20679;-72
2022/10/26 06:30:22;;;;;;;64.25;22.98;;;;;12.40;96576.00;;;;8327394;28;20593;-73
2022/10/26 06:34:32;;;;;;;70.43;22.08;;;;;12.40;96573.00;;;;8326131;28;20636;-72
2022/10/26 06:38:36;;;;;;;62.95;21.60;;;;;12.50;96590.00;;;;8294669;28;20216;-72
2022/10/26 06:42:40;;;;;;;62.88;21.67;;;;;12.60;96579.00;;;;8294940;28;20272;-72
2022/10/26 06:47:19;;;;;;;52.55;20.75;;;;;12.60;96557.00;;;;8294874;28;20221;-72
2022/10/26 06:51:57;;;;;;;57.45;19.92;;;;;12.60;96553.00;;;;8293920;28;20296;-73
2022/10/26 06:56:00;;;;;;;52.58;18.77;;;;;12.60;96560.00;;;;8295026;28;20279;-72
2022/10/26 07:00:39;;;;;;;50.42;19.40;;;;;12.60;96563.00;;;;8294404;28;20225;-73
2022/10/26 07:05:13;;;;;;;53.33;19.63;;;;;12.60;96562.00;;;;8293585;28;20652;-73
2022/10/26 07:09:50;;;;;;;53.08;18.35;;;;;12.60;96572.00;;;;8294599;28;20228;-73
2022/10/26 07:13:53;;;;;;;50.85;18.52;;;;;12.70;96552.00;;;;8293677;28;20222;-73
2022/10/26 07:18:30;;;;;;;51.95;18.90;;;;;12.70;96555.00;;;;8294615;28;20612;-73
2022/10/26 07:22:33;;;;;;;50.80;18.90;;;;;12.60;96560.00;;;;8295056;28;20222;-73
2022/10/26 07:27:12;;;;;;;51.72;18.27;;;;;12.70;96565.00;;;;8299673;28;20228;-74
2022/10/26 07:31:45;;;;;;;53.42;19.05;;;;;12.80;96590.00;;;;8299122;28;20244;-74
2022/10/26 07:35:49;;;;;;;42.20;17.38;;;;;13.10;96620.00;;;;8298036;28;20655;-74
2022/10/26 07:40:26;;;;;;;41.83;17.67;;;;;13.20;96628.00;;;;8299431;28;20232;-74
2022/10/26 07:44:31;;;;;;;43.88;18.05;;;;;13.20;96622.00;;;;8299109;28;20209;-74
2022/10/26 07:48:34;;;;;;;43.40;18.50;;;;;13.30;96624.00;;;;8299530;28;20683;-74
2022/10/26 07:53:08;;;;;;;53.60;20.40;;;;;13.40;96623.00;;;;8299374;28;20724;-74
2022/10/26 07:57:11;;;;;;;48.65;20.30;;;;;13.60;96620.00;;;;8299255;28;20624;-74
2022/10/26 08:01:49;;;;;;;44.35;18.50;;;;;13.90;96617.00;;;;8299434;28;20241;-74
2022/10/26 08:05:54;;;;;;;43.17;18.73;;;;;14.20;96626.00;;;;8299046;28;20220;-74
2022/10/26 08:10:28;;;;;;;38.47;17.80;;;;;14.50;96629.00;;;;8298502;28;20226;-74
2022/10/26 08:15:06;;;;;;;33.58;14.80;;;;;14.70;96626.00;;;;8298746;28;20275;-74
2022/10/26 08:19:11;;;;;;;31.65;14.45;;;;;14.60;96632.00;;;;8330785;28;20263;-75
2022/10/26 08:23:45;;;;;;;32.88;14.48;;;;;14.70;96622.00;;;;8331384;28;20258;-75
2022/10/26 08:27:48;;;;;;;38.22;16.73;;;;;14.70;96612.00;;;;8300388;28;20229;-75
2022/10/26 08:31:51;;;;;;;32.50;16.08;;;;;14.70;96626.00;;;;8298708;28;20216;-75
2022/10/26 08:36:29;;;;;;;30.38;15.27;;;;;14.60;96632.00;;;;8297596;28;20309;-75
2022/10/26 08:40:34;;;;;;;35.25;16.02;;;;;14.50;96640.00;;;;8297697;28;20222;-75
2022/10/26 08:45:14;;;;;;;25.65;14.32;;;;;14.50;96635.00;;;;8297161;28;20221;-75
2022/10/26 08:49:23;;;;;;;35.03;15.43;;;;;14.40;96643.00;;;;8300642;28;20222;-75
2022/10/26 08:53:57;;;;;;;36.33;16.55;;;;;14.40;96648.00;;;;8298078;28;20233;-75
2022/10/26 08:58:02;;;;;;;34.83;15.98;;;;;14.60;96646.00;;;;8296563;28;20230;-75
2022/10/26 09:02:12;;;;;;;34.10;16.35;;;;;14.80;96654.00;;;;8296904;28;20240;-75
2022/10/26 09:06:45;;;;;;;38.28;18.73;;;;;14.90;96647.00;;;;8297097;28;20218;-75
2022/10/26 09:10:58;;;;;;;24.40;13.02;;;;;15.20;96637.00;;;;8297269;28;20552;-75
2022/10/26 09:15:28;;;;;;;24.27;11.43;;;;;15.30;96631.00;;;;8296923;28;20284;-75
2022/10/26 09:19:46;;;;;;;18.90;11.15;;;;;15.50;96635.00;;;;8297067;28;20560;-75
2022/10/26 09:24:13;;;;;;;20.08;11.98;;;;;15.60;96632.00;;;;8296321;28;20210;-75
2022/10/26 09:28:19;;;;;;;19.38;10.32;;;;;15.50;96645.00;;;;8296227;28;20248;-75
2022/10/26 09:32:26;;;;;;;23.85;11.75;;;;;15.50;96645.00;;;;8296152;28;20226;-74
2022/10/26 09:36:29;;;;;;;15.45;10.60;;;;;15.60;96650.00;;;;8296562;28;20233;-74
2022/10/26 09:40:40;;;;;;;15.90;8.98;;;;;15.80;96648.00;;;;8295724;28;20686;-74
2022/10/26 09:44:53;;;;;;;27.08;8.98;;;;;15.90;96668.00;;;;8295613;28;20300;-75
2022/10/26 09:48:59;;;;;;;14.70;8.85;;;;;15.90;96654.00;;;;8295798;28;20225;-75
2022/10/26 09:53:03;;;;;;;13.52;9.00;;;;;16.00;96665.00;;;;8293672;28;20640;-74
2022/10/26 10:02:42;;;;;;;16.80;9.07;;;;;16.00;96675.00;;;;8294903;28;20267;-75
2022/10/26 10:06:47;;;;;;;15.25;8.52;;;;;16.20;96675.00;;;;8295265;28;20213;-74
2022/10/26 10:11:02;;;;;;;13.43;9.05;;;;;16.50;96675.00;;;;8295170;28;20230;-74
2022/10/26 10:15:30;;;;;;;12.88;9.40;;;;;16.70;96673.00;;;;8295578;28;20226;-74
2022/10/26 10:20:12;;;;;;;10.77;8.20;;;;;17.00;96667.00;;;;8295502;28;20225;-74
2022/10/26 10:24:53;;;;;;;14.88;10.55;;;;;17.20;96674.00;;;;8326931;28;20640;-75
2022/10/26 10:28:58;;;;;;;11.25;8.00;;;;;17.50;96677.00;;;;8295169;28;20225;-74
2022/10/26 10:33:06;;;;;;;10.45;7.18;;;;;17.70;96671.00;;;;8295528;28;20276;-75
2022/10/26 10:37:42;;;;;;;10.68;7.30;;;;;17.70;96663.00;;;;8294765;28;20229;-75
2022/10/26 10:41:47;;;;;;;12.50;7.10;;;;;17.70;96655.00;;;;8294904;28;20229;-73
2022/10/26 10:46:22;;;;;;;12.07;6.88;;;;;17.90;96661.00;;;;8294816;28;20304;-73
2022/10/26 10:50:58;;;;;;;10.98;6.38;;;;;18.10;96663.00;;;;8294419;28;20288;-73
2022/10/26 10:55:15;;;;;;;12.52;7.53;;;;;18.30;96677.00;;;;8293978;28;20221;-73
2022/10/26 10:59:34;;;;;;;7.80;5.13;;;;;18.50;96675.00;;;;8298742;28;20225;-73
2022/10/26 11:04:12;;;;;;;9.45;5.75;;;;;18.80;96685.00;;;;8300508;28;20222;-73
2022/10/26 11:08:21;;;;;;;7.13;4.57;;;;;19.00;96683.00;;;;8299923;28;20222;-74
2022/10/26 11:12:29;;;;;;;6.30;4.30;;;;;19.10;96684.00;;;;8301180;28;20273;-73
2022/10/26 11:16:59;;;;;;;7.15;4.45;;;;;19.00;96694.00;;;;8300438;28;20226;-73
2022/10/26 11:21:38;;;;;;;10.40;4.10;;;;;18.60;96688.00;;;;8299889;28;20698;-72
2022/10/26 11:26:15;;;;;;;7.20;3.42;;;;;18.20;96689.00;;;;8300274;28;20272;-74
2022/10/26 11:30:20;;;;;;;7.75;3.55;;;;;18.10;96695.00;;;;8331460;28;20229;-73
2022/10/26 11:34:30;;;;;;;9.00;4.03;;;;;18.10;96707.00;;;;8332260;28;20276;-74
2022/10/26 11:38:40;;;;;;;6.25;3.00;;;;;18.20;96706.00;;;;8332576;28;20606;-72
2022/10/26 11:43:11;;;;;;;9.35;2.92;;;;;18.40;96706.00;;;;8301388;28;20771;-73
2022/10/26 11:47:16;;;;;;;9.68;4.70;;;;;18.40;96715.00;;;;8298511;28;20222;-73
2022/10/26 11:51:32;;;;;;;6.93;3.22;;;;;18.50;96711.00;;;;8298687;28;20269;-73
2022/10/26 11:55:58;;;;;;;11.63;4.40;;;;;18.60;96726.00;;;;8298044;28;20702;-74
2022/10/26 12:00:04;;;;;;;6.32;3.33;;;;;18.70;96721.00;;;;8299260;28;20280;-73
2022/10/26 12:04:38;;;;;;;6.43;3.25;;;;;18.70;96729.00;;;;8298542;28;20271;-73
2022/10/26 12:08:46;;;;;;;6.53;2.83;;;;;18.70;96741.00;;;;8297802;28;20218;-74
2022/10/26 12:12:57;;;;;;;6.35;3.05;;;;;18.60;96739.00;;;;8297694;28;20229;-75
2022/10/26 12:17:08;;;;;;;5.03;2.50;;;;;18.50;96741.00;;;;8297743;28;20218;-74
2022/10/26 12:21:36;;;;;;;5.28;2.95;;;;;18.00;96734.00;;;;8297593;28;20252;-69
2022/10/26 12:25:39;;;;;;;3.35;2.88;;;;;17.90;96745.00;;;;8298053;28;20528;-69
2022/10/26 12:29:48;;;;;;;5.78;2.97;;;;;18.00;96748.00;;;;8298397;28;20648;-71
2022/10/26 12:33:51;;;;;;;5.57;3.13;;;;;18.10;96761.00;;;;8297662;28;20222;-71
2022/10/26 12:37:55;;;;;;;10.75;3.13;;;;;18.20;96766.00;;;;8297971;28;20226;-72
2022/10/26 12:42:09;;;;;;;6.53;2.70;;;;;18.20;96772.00;;;;8297481;28;20222;-72
2022/10/26 12:46:39;;;;;;;9.63;3.35;;;;;18.20;96770.00;;;;8298035;28;20302;-71
2022/10/26 12:50:42;;;;;;;6.22;3.00;;;;;18.60;96769.00;;;;8297791;28;20237;-71
2022/10/26 12:55:22;;;;;;;4.28;3.08;;;;;18.90;96764.00;;;;8297355;28;20221;-72
2022/10/26 12:59:32;;;;;;;6.68;3.20;;;;;19.10;96762.00;;;;8296659;28;20222;-72
2022/10/26 13:03:46;;;;;;;3.85;2.70;;;;;19.30;96766.00;;;;8297005;28;20679;-72
2022/10/26 13:07:50;;;;;;;4.57;3.00;;;;;19.30;96768.00;;;;8296840;28;20206;-73
2022/10/26 13:11:55;;;;;;;10.73;7.55;;;;;19.30;96766.00;;;;8296326;28;20226;-72
2022/10/26 13:16:01;;;;;;;9.70;4.95;;;;;19.30;96751.00;;;;8297111;28;20602;-73
2022/10/26 13:20:07;;;;;;;4.00;3.28;;;;;19.30;96752.00;;;;8295585;28;20237;-73
2022/10/26 13:24:14;;;;;;;5.55;3.00;;;;;19.10;96755.00;;;;8296835;28;20285;-73
2022/10/26 13:28:34;;;;;;;5.20;2.67;;;;;18.90;96770.00;;;;8296179;28;20305;-73
2022/10/26 13:32:40;;;;;;;3.92;2.72;;;;;18.80;96768.00;;;;8294978;28;20241;-74
2022/10/26 13:36:49;;;;;;;5.05;2.70;;;;;18.80;96782.00;;;;8286981;28;20702;-74
2022/10/26 13:41:27;;;;;;;6.25;2.78;;;;;18.80;96780.00;;;;8294469;28;20694;-73
2022/10/26 13:45:34;;;;;;;6.75;3.55;;;;;18.90;96780.00;;;;8295386;28;20222;-73
2022/10/26 13:49:40;;;;;;;5.85;2.85;;;;;18.90;96789.00;;;;8295368;28;20245;-73
2022/10/26 13:53:49;;;;;;;5.05;2.78;;;;;18.90;96798.00;;;;8295567;28;20218;-73
2022/10/26 13:58:09;;;;;;;6.72;3.08;;;;;18.70;96804.00;;;;8294284;28;20664;-73
2022/10/26 14:02:29;;;;;;;5.30;3.97;;;;;18.70;96804.00;;;;8291947;28;20226;-74
2022/10/26 14:07:02;;;;;;;9.02;3.95;;;;;18.80;96807.00;;;;8294182;28;20230;-74
2022/10/26 14:11:47;;;;;;;6.95;3.75;;;;;18.80;96807.00;;;;8294483;28;20240;-76
2022/10/26 14:15:51;;;;;;;6.30;3.08;;;;;18.90;96808.00;;;;8293041;28;20232;-76
2022/10/26 14:20:28;;;;;;;11.30;3.40;;;;;18.90;96808.00;;;;8293713;28;20226;-74
2022/10/26 14:24:34;;;;;;;4.53;3.00;;;;;19.00;96811.00;;;;8292491;28;20375;-77
2022/10/26 14:29:17;;;;;;;7.78;2.67;;;;;19.10;96815.00;;;;8293813;28;20305;-76
2022/10/26 14:33:42;;;;;;;6.78;3.30;;;;;19.10;96811.00;;;;8302872;28;20217;-75
2022/10/26 14:37:49;;;;;;;7.20;3.15;;;;;19.00;96810.00;;;;8301268;28;20275;-75
2022/10/26 14:42:26;;;;;;;5.80;2.70;;;;;18.90;96807.00;;;;8300043;28;20217;-75
2022/10/26 14:46:35;;;;;;;5.68;2.97;;;;;18.80;96810.00;;;;8300321;28;20225;-75
2022/10/26 14:50:38;;;;;;;8.50;3.63;;;;;18.80;96810.00;;;;8300197;28;20372;-76
2022/10/26 14:55:14;;;;;;;10.13;3.00;;;;;18.80;96812.00;;;;8299663;28;20232;-75
2022/10/26 14:59:24;;;;;;;7.43;3.35;;;;;18.70;96827.00;;;;8299797;28;20213;-71
2022/10/26 15:03:29;;;;;;;6.30;3.22;;;;;18.80;96826.00;;;;8300285;28;20221;-72
2022/10/26 15:08:03;;;;;;;12.38;3.40;;;;;18.70;96843.00;;;;8292923;28;20225;-71
2022/10/26 15:12:40;;;;;;;7.72;2.95;;;;;18.50;96838.00;;;;8297467;28;20639;-75
2022/10/26 15:17:22;;;;;;;5.00;3.45;;;;;18.20;96844.00;;;;8299855;28;20660;-74
2022/10/26 15:21:58;;;;;;;5.60;3.08;;;;;17.90;96847.00;;;;8299273;28;20226;-75
2022/10/26 15:26:32;;;;;;;8.27;3.20;;;;;17.70;96848.00;;;;8298753;28;20332;-74
2022/10/26 15:31:09;;;;;;;10.30;3.30;;;;;17.60;96849.00;;;;8299167;28;20234;-75
2022/10/26 15:35:30;;;;;;;7.80;3.50;;;;;17.30;96851.00;;;;8299556;28;20341;-74
2022/10/26 15:40:01;;;;;;;4.10;3.10;;;;;17.10;96861.00;;;;8299155;28;20221;-75
2022/10/26 15:44:40;;;;;;;11.95;3.97;;;;;16.90;96867.00;;;;8297758;28;20222;-74
2022/10/26 15:48:54;;;;;;;8.07;3.88;;;;;16.80;96868.00;;;;8299337;28;20224;-74
2022/10/26 15:53:01;;;;;;;11.15;4.70;;;;;16.70;96867.00;;;;8297216;28;20284;-74
2022/10/26 15:57:05;;;;;;;9.05;4.18;;;;;16.60;96877.00;;;;8298082;28;20268;-74
2022/10/26 16:01:50;;;;;;;17.60;4.53;;;;;16.50;96876.00;;;;8290599;28;20217;-73
2022/10/26 16:06:23;;;;;;;10.68;5.35;;;;;16.50;96884.00;;;;8293084;28;20225;-74
2022/10/26 16:10:26;;;;;;;8.93;4.55;;;;;16.50;96890.00;;;;8297523;28;20233;-75
2022/10/26 16:14:29;;;;;;;7.65;3.95;;;;;16.50;96887.00;;;;8298031;28;20230;-74
2022/10/26 16:19:06;;;;;;;9.63;5.38;;;;;16.50;96899.00;;;;8297250;28;20238;-74
2022/10/26 16:23:46;;;;;;;11.20;4.57;;;;;16.50;96891.00;;;;8297223;28;20222;-75
2022/10/26 16:27:57;;;;;;;11.15;4.65;;;;;16.60;96902.00;;;;8297620;28;20221;-74
2022/10/26 16:32:31;;;;;;;8.90;4.20;;;;;16.60;96902.00;;;;8296532;28;20226;-74
2022/10/26 16:37:08;;;;;;;6.28;3.92;;;;;16.60;96907.00;;;;8293905;28;20259;-74
2022/10/26 16:41:44;;;;;;;11.57;4.28;;;;;16.60;96912.00;;;;8297025;28;20218;-73
2022/10/26 16:46:23;;;;;;;9.77;4.15;;;;;16.50;96902.00;;;;8297483;28;20284;-73
2022/10/26 16:50:26;;;;;;;10.50;4.65;;;;;16.50;96912.00;;;;8297503;28;20582;-73
2022/10/26 16:55:01;;;;;;;14.00;4.22;;;;;16.40;96914.00;;;;8296123;28;20310;-74
2022/10/26 16:59:04;;;;;;;10.70;4.47;;;;;16.40;96920.00;;;;8297065;28;20228;-73
2022/10/26 17:03:38;;;;;;;7.88;3.92;;;;;16.30;96921.00;;;;8291783;28;20226;-73
2022/10/26 17:08:16;;;;;;;14.38;4.95;;;;;16.30;96933.00;;;;8292296;28;20234;-74
2022/10/26 17:12:49;;;;;;;11.20;5.20;;;;;16.20;96934.00;;;;8296427;28;20296;-74
2022/10/26 17:17:24;;;;;;;11.80;4.68;;;;;16.20;96936.00;;;;8296000;28;20263;-73
2022/10/26 17:22:01;;;;;;;6.15;4.70;;;;;16.20;96945.00;;;;8294938;28;20591;-74
2022/10/26 17:26:38;;;;;;;11.27;5.57;;;;;16.20;96951.00;;;;8294962;28;20226;-74
2022/10/26 17:31:12;;;;;;;15.15;7.93;;;;;16.20;96957.00;;;;8295710;28;20268;-74
2022/10/26 17:35:52;;;;;;;16.85;5.43;;;;;16.20;96957.00;;;;8295363;28;20244;-74
2022/10/26 17:40:23;;;;;;;10.93;5.38;;;;;16.10;96970.00;;;;8293304;28;20229;-74
2022/10/26 17:45:01;;;;;;;11.93;5.47;;;;;16.20;96975.00;;;;8294177;28;20225;-74
2022/10/26 17:49:35;;;;;;;10.80;4.90;;;;;16.20;96981.00;;;;8294013;28;20268;-76
2022/10/26 17:54:00;;;;;;;11.43;5.13;;;;;16.00;96990.00;;;;8294791;28;20663;-76
2022/10/26 17:58:03;;;;;;;10.98;5.38;;;;;16.00;96992.00;;;;8295983;28;20647;-76
2022/10/26 18:02:41;;;;;;;8.50;4.80;;;;;15.90;97002.00;;;;8295026;28;20564;-76
2022/10/26 18:07:19;;;;;;;10.48;5.47;;;;;15.90;97000.00;;;;8293364;28;20229;-75
2022/10/26 18:11:24;;;;;;;11.27;5.75;;;;;15.90;97011.00;;;;8295301;28;20292;-75
2022/10/26 18:16:02;;;;;;;12.82;5.85;;;;;15.90;97010.00;;;;8295210;28;20758;-76
2022/10/26 18:20:34;;;;;;;12.30;6.28;;;;;15.90;97018.00;;;;8326930;28;20225;-76
2022/10/26 18:25:07;;;;;;;13.80;5.78;;;;;15.80;97013.00;;;;8295460;28;20210;-75
2022/10/26 18:29:44;;;;;;;17.38;6.43;;;;;15.80;97018.00;;;;8295032;28;20288;-75
2022/10/26 18:34:21;;;;;;;13.15;7.00;;;;;15.80;97024.00;;;;8294936;28;20655;-75
2022/10/26 18:38:59;;;;;;;16.85;6.40;;;;;15.80;97028.00;;;;8298285;28;20276;-76
2022/10/26 18:43:38;;;;;;;12.32;6.60;;;;;15.70;97030.00;;;;8295259;28;20217;-76
2022/10/26 18:48:12;;;;;;;16.75;6.85;;;;;15.60;97033.00;;;;8294444;28;20217;-75
2022/10/26 18:52:50;;;;;;;12.65;6.47;;;;;15.60;97028.00;;;;8294449;28;20222;-75
2022/10/26 18:57:28;;;;;;;14.40;7.22;;;;;15.40;97032.00;;;;8293624;28;20233;-75
2022/10/26 19:02:02;;;;;;;20.08;6.07;;;;;15.30;97041.00;;;;8295073;28;20309;-74
2022/10/26 19:06:41;;;;;;;13.50;7.35;;;;;15.00;97040.00;;;;8293708;28;20245;-76
2022/10/26 19:11:16;;;;;;;13.82;6.13;;;;;14.80;97044.00;;;;8293564;28;20218;-75
2022/10/26 19:15:58;;;;;;;13.95;7.53;;;;;14.60;97049.00;;;;8293724;28;20218;-75
2022/10/26 19:20:26;;;;;;;14.32;7.25;;;;;14.40;97060.00;;;;8296931;28;20656;-74
2022/10/26 19:25:03;;;;;;;19.73;7.35;;;;;14.20;97053.00;;;;8300364;28;20221;-74
2022/10/26 19:29:40;;;;;;;22.77;7.90;;;;;14.00;97060.00;;;;8299701;28;20214;-74
2022/10/26 19:34:16;;;;;;;12.13;7.18;;;;;13.80;97060.00;;;;8300623;28;20222;-75
2022/10/26 19:38:49;;;;;;;13.85;7.30;;;;;13.60;97068.00;;;;8290483;28;20229;-76
2022/10/26 19:43:28;;;;;;;16.80;7.72;;;;;13.50;97080.00;;;;8299298;28;20234;-76
2022/10/26 19:47:35;;;;;;;14.05;7.65;;;;;13.40;97081.00;;;;8299483;28;20722;-76
2022/10/26 19:52:13;;;;;;;309.77;15.20;;;;;13.30;97083.00;;;;8299638;28;20229;-76
2022/10/26 19:56:47;;;;;;;20.88;8.45;;;;;13.20;97087.00;;;;8298739;28;20214;-76
2022/10/26 20:06:22;;;;;;;16.65;8.18;;;;;13.00;97092.00;;;;8298662;28;20588;-76
2022/10/26 20:10:27;;;;;;;17.13;9.23;;;;;13.00;97097.00;;;;8299083;28;20553;-76
2022/10/26 20:15:02;;;;;;;384.15;16.92;;;;;12.90;97097.00;;;;8298479;28;20565;-76
2022/10/26 20:19:38;;;;;;;20.90;8.82;;;;;12.80;97100.00;;;;8298398;28;20263;-76
2022/10/26 20:24:15;;;;;;;19.17;10.40;;;;;12.80;97102.00;;;;8297963;28;20539;-76
2022/10/26 20:28:20;;;;;;;78.70;11.45;;;;;12.80;97103.00;;;;8298460;28;20682;-76
2022/10/26 20:32:55;;;;;;;27.25;8.38;;;;;12.70;97105.00;;;;8297681;28;20241;-76
2022/10/26 20:36:59;;;;;;;34.72;8.63;;;;;12.50;97111.00;;;;8298001;28;20214;-76
2022/10/26 20:41:02;;;;;;;30.08;9.55;;;;;12.40;97113.00;;;;8298060;28;20634;-75
2022/10/26 20:45:38;;;;;;;26.45;8.98;;;;;12.20;97117.00;;;;8302749;28;20210;-76
2022/10/26 20:49:41;;;;;;;37.90;10.35;;;;;12.20;97112.00;;;;8296970;28;20579;-76
2022/10/26 20:54:19;;;;;;;23.58;10.10;;;;;12.10;97118.00;;;;8297899;28;20225;-74
2022/10/26 20:58:34;;;;;;;56.85;11.65;;;;;12.10;97132.00;;;;8296546;28;20557;-74
2022/10/26 21:02:57;;;;;;;32.00;10.73;;;;;12.00;97123.00;;;;8297203;28;20225;-74
2022/10/26 21:07:01;;;;;;;34.55;11.88;;;;;12.00;97128.00;;;;8296299;28;20217;-75
2022/10/26 21:11:37;;;;;;;26.40;10.95;;;;;12.00;97132.00;;;;8297774;28;20710;-75
2022/10/26 21:15:41;;;;;;;43.80;11.50;;;;;12.00;97133.00;;;;8328907;28;20275;-76
2022/10/26 21:20:17;;;;;;;48.15;12.55;;;;;12.00;97133.00;;;;8328933;28;20220;-75
2022/10/26 21:24:22;;;;;;;259.95;20.42;;;;;12.00;97135.00;;;;8295932;28;20225;-75
2022/10/26 21:28:25;;;;;;;41.83;13.02;;;;;12.00;97142.00;;;;8297056;28;20225;-75
2022/10/26 21:32:28;;;;;;;53.80;13.57;;;;;11.90;97142.00;;;;8296058;28;20233;-75
2022/10/26 21:37:05;;;;;;;188.32;19.25;;;;;11.90;97146.00;;;;8301850;28;20233;-75
2022/10/26 21:41:11;;;;;;;74.72;13.98;;;;;11.80;97141.00;;;;8295431;28;20574;-75
2022/10/26 21:45:14;;;;;;;24.92;10.43;;;;;11.80;97149.00;;;;8295339;28;20228;-75
2022/10/26 21:49:52;;;;;;;502.85;25.20;;;;;11.70;97152.00;;;;8295798;28;20223;-74
2022/10/26 21:53:56;;;;;;;505.45;29.67;;;;;11.60;97151.00;;;;8294335;28;20568;-75
2022/10/26 21:58:01;;;;;;;237.27;21.10;;;;;11.50;97156.00;;;;8294911;28;21316;-75
2022/10/26 22:02:16;;;;;;;259.95;23.88;;;;;11.50;97161.00;;;;8299941;28;20280;-75
2022/10/26 22:06:20;;;;;;;538.03;30.27;;;;;11.50;97157.00;;;;8295307;28;20530;-74
2022/10/26 22:10:31;;;;;;;587.65;37.05;;;;;11.40;97157.00;;;;8294927;28;20311;-75
2022/10/26 22:15:04;;;;;;;849.85;43.22;;;;;11.30;97155.00;;;;8295118;28;20556;-75
2022/10/26 22:19:08;;;;;;;49.78;14.15;;;;;11.40;97162.00;;;;8294144;28;20221;-75
2022/10/26 22:23:11;;;;;;;623.13;35.72;;;;;11.40;97156.00;;;;8295867;28;20236;-75
2022/10/26 22:27:14;;;;;;;128.05;16.38;;;;;11.40;97146.00;;;;8294904;28;20448;-75
2022/10/26 22:31:21;;;;;;;57.25;15.05;;;;;11.20;97155.00;;;;8295317;28;20237;-75